Time;durP1;ratioP1;P1;durP2;ratioP2;P2;SDS_P1;SDS_P2;PMS_P1;PMS_P2;Temp;Humidity;BMP_temperature;BMP_pressure;BME280_temperature;BME280_humidity;BME280_pressure;Samples;Min_cycle;Max_cycle;Signal;HPM_P1;HPM_P2
2022/12/28 00:01:11;;;;;;;7.17;6.97;;;22.60;55.70;;;;;;5052111;28;20525;-54
2022/12/28 00:03:38;;;;;;;6.77;6.57;;;22.60;55.70;;;;;;5052540;28;20876;-55
2022/12/28 00:06:06;;;;;;;7.50;7.30;;;22.60;55.70;;;;;;5052244;28;20484;-52
2022/12/28 00:08:33;;;;;;;7.63;7.43;;;22.60;55.70;;;;;;5052294;28;20436;-53
2022/12/28 00:11:01;;;;;;;6.80;6.70;;;22.60;55.70;;;;;;5052106;28;20535;-55
2022/12/28 00:13:30;;;;;;;6.60;6.50;;;22.60;55.70;;;;;;5051687;28;20463;-54
2022/12/28 00:15:57;;;;;;;7.10;6.90;;;22.60;55.60;;;;;;5052310;28;20487;-52
2022/12/28 00:18:25;;;;;;;6.90;6.70;;;22.60;55.60;;;;;;5052215;28;20872;-52
2022/12/28 00:20:59;;;;;;;6.67;6.53;;;22.50;55.50;;;;;;5051853;28;20449;-54
2022/12/28 00:23:26;;;;;;;6.97;6.77;;;22.50;55.60;;;;;;5052005;28;20456;-51
2022/12/28 00:25:53;;;;;;;6.40;6.30;;;22.50;55.50;;;;;;5052064;28;20843;-53
2022/12/28 00:28:20;;;;;;;6.60;6.40;;;22.50;55.50;;;;;;5051938;28;20450;-56
2022/12/28 00:30:48;;;;;;;7.53;7.23;;;22.50;55.50;;;;;;5049346;28;20448;-51
2022/12/28 00:33:15;;;;;;;6.50;6.40;;;22.50;55.50;;;;;;5051832;28;20556;-54
2022/12/28 00:35:43;;;;;;;6.70;6.50;;;22.50;55.50;;;;;;5051967;28;21006;-52
2022/12/28 00:38:10;;;;;;;6.50;6.27;;;22.50;55.50;;;;;;5051872;28;20541;-53
2022/12/28 00:40:37;;;;;;;6.90;6.70;;;22.40;55.50;;;;;;5051322;28;20886;-56
2022/12/28 00:43:04;;;;;;;7.03;6.83;;;22.50;55.50;;;;;;5051777;28;20891;-51
2022/12/28 00:45:30;;;;;;;7.23;7.03;;;22.40;55.50;;;;;;5051384;28;20468;-55
2022/12/28 00:47:58;;;;;;;6.60;6.40;;;22.40;55.60;;;;;;5052003;28;20876;-54
2022/12/28 00:50:24;;;;;;;6.83;6.63;;;22.40;55.60;;;;;;5051543;28;20531;-52
2022/12/28 00:52:53;;;;;;;6.70;6.50;;;22.40;55.60;;;;;;5050850;28;20555;-53
2022/12/28 00:55:20;;;;;;;7.03;6.63;;;22.40;55.60;;;;;;5051556;28;20527;-53
2022/12/28 00:57:47;;;;;;;6.77;6.47;;;22.40;55.60;;;;;;5051613;28;20535;-52
2022/12/28 01:00:15;;;;;;;6.83;6.63;;;22.40;55.60;;;;;;5051315;28;20448;-55
2022/12/28 01:02:42;;;;;;;6.60;6.40;;;22.40;55.60;;;;;;5051368;28;20981;-51
2022/12/28 01:05:09;;;;;;;6.67;6.47;;;22.40;55.60;;;;;;5051540;28;20873;-51
2022/12/28 01:07:36;;;;;;;6.63;6.43;;;22.40;55.60;;;;;;5051496;28;20531;-51
2022/12/28 01:10:05;;;;;;;6.43;6.23;;;22.40;55.60;;;;;;5051357;28;20490;-51
2022/12/28 01:12:32;;;;;;;6.10;6.00;;;22.40;55.60;;;;;;5050612;28;20464;-53
2022/12/28 01:14:59;;;;;;;6.73;6.53;;;22.40;55.60;;;;;;5051587;28;20444;-51
2022/12/28 01:17:25;;;;;;;6.53;6.23;;;22.40;55.60;;;;;;5051629;28;20804;-54
2022/12/28 01:19:52;;;;;;;6.83;6.63;;;22.40;55.50;;;;;;5051339;28;20887;-51
2022/12/28 01:22:19;;;;;;;6.10;6.00;;;22.30;55.50;;;;;;5051125;28;20569;-51
2022/12/28 01:24:46;;;;;;;6.37;6.27;;;22.30;55.50;;;;;;5051447;28;20528;-51
2022/12/28 01:27:15;;;;;;;6.40;6.30;;;22.30;55.50;;;;;;5055378;28;21043;-51
2022/12/28 01:29:41;;;;;;;6.20;6.00;;;22.30;55.50;;;;;;5055200;28;20573;-52
2022/12/28 01:32:08;;;;;;;6.87;6.70;;;22.30;55.40;;;;;;5055017;28;20573;-54
2022/12/28 01:34:35;;;;;;;6.53;6.33;;;22.30;55.50;;;;;;5055190;28;20439;-51
2022/12/28 01:37:02;;;;;;;6.77;6.47;;;22.30;55.50;;;;;;5055232;28;20440;-51
2022/12/28 01:39:29;;;;;;;7.10;6.90;;;22.30;55.50;;;;;;5055068;28;20454;-52
2022/12/28 01:41:56;;;;;;;6.27;6.17;;;22.30;55.50;;;;;;5054517;28;20528;-54
2022/12/28 01:44:43;;;;;;;6.90;6.70;;;22.30;55.60;;;;;;5055045;28;20934;-51
2022/12/28 01:47:17;;;;;;;6.93;6.73;;;22.30;55.50;;;;;;5055157;28;20648;-54
2022/12/28 01:49:50;;;;;;;6.30;6.10;;;22.30;55.50;;;;;;5054738;28;20451;-52
2022/12/28 01:52:21;;;;;;;6.43;6.33;;;22.30;55.50;;;;;;5054694;28;20823;-53
2022/12/28 01:54:52;;;;;;;6.73;6.53;;;22.30;55.50;;;;;;5054976;28;21212;-51
2022/12/28 01:57:21;;;;;;;6.33;6.23;;;22.20;55.40;;;;;;5054928;28;20934;-56
2022/12/28 01:59:54;;;;;;;6.30;6.20;;;22.30;55.50;;;;;;5054664;28;20443;-52
2022/12/28 02:02:21;;;;;;;6.60;6.50;;;22.20;55.40;;;;;;5054430;28;20478;-52
2022/12/28 02:04:49;;;;;;;6.50;6.30;;;22.30;55.50;;;;;;5054691;28;20844;-51
2022/12/28 02:07:22;;;;;;;6.23;6.13;;;22.20;55.40;;;;;;5054609;28;20490;-50
2022/12/28 02:09:50;;;;;;;6.50;6.30;;;22.20;55.40;;;;;;5054093;28;20451;-52
2022/12/28 02:12:17;;;;;;;6.33;6.23;;;22.20;55.30;;;;;;5054499;28;20463;-53
2022/12/28 02:14:46;;;;;;;7.23;6.87;;;22.20;55.30;;;;;;5054469;28;20448;-55
2022/12/28 02:17:14;;;;;;;6.60;6.40;;;22.20;55.40;;;;;;5054551;28;20713;-51
2022/12/28 02:19:45;;;;;;;6.97;6.77;;;22.20;55.30;;;;;;5053995;28;20444;-55
2022/12/28 02:22:43;;;;;;;6.67;6.47;;;22.20;55.30;;;;;;5053379;28;20525;-51
2022/12/28 02:25:46;;;;;;;6.60;6.50;;;22.20;55.40;;;;;;5054397;28;20544;-54
2022/12/28 02:28:29;;;;;;;6.53;6.40;;;22.20;55.50;;;;;;5054377;28;20804;-54
2022/12/28 02:31:02;;;;;;;6.73;6.63;;;22.20;55.40;;;;;;5034154;28;20915;-55
2022/12/28 02:33:35;;;;;;;5.97;5.87;;;22.20;55.50;;;;;;5034246;28;20461;-51
2022/12/28 02:36:08;;;;;;;6.40;6.30;;;22.20;55.50;;;;;;5033785;28;20446;-52
2022/12/28 02:38:41;;;;;;;6.40;6.20;;;22.20;55.50;;;;;;5035537;28;20451;-52
2022/12/28 02:41:11;;;;;;;6.43;6.23;;;22.20;55.50;;;;;;5053983;28;20452;-53
2022/12/28 02:43:39;;;;;;;6.40;6.30;;;22.10;55.40;;;;;;5053861;28;20999;-52
2022/12/28 02:52:15;;;;;;;6.87;6.67;;;22.20;55.50;;;;;;5053919;28;20481;-51
2022/12/28 02:58:05;;;;;;;6.30;6.13;;;22.10;55.50;;;;;;5053865;28;20423;-51
2022/12/28 03:00:45;;;;;;;6.30;6.20;;;22.10;55.50;;;;;;5053247;28;20454;-54
2022/12/28 03:03:24;;;;;;;6.40;6.20;;;22.10;55.50;;;;;;5053539;28;20463;-53
2022/12/28 03:08:58;;;;;;;6.47;6.17;;;22.10;55.60;;;;;;5053405;28;20498;-51
2022/12/28 03:11:37;;;;;;;6.30;6.20;;;22.10;55.60;;;;;;5053420;28;20444;-52
2022/12/28 03:14:08;;;;;;;6.03;5.93;;;22.00;55.50;;;;;;5053465;28;20458;-51
2022/12/28 03:25:41;;;;;;;6.30;6.10;;;22.00;55.60;;;;;;5053272;28;20702;-51
2022/12/28 03:33:29;;;;;;;6.27;6.17;;;22.10;55.60;;;;;;5033097;28;20958;-51
2022/12/28 03:36:04;;;;;;;6.10;6.00;;;22.10;55.60;;;;;;5039147;28;20450;-52
2022/12/28 03:38:39;;;;;;;6.10;6.00;;;22.00;55.60;;;;;;5052932;28;20450;-52
2022/12/28 03:41:08;;;;;;;6.00;5.90;;;22.00;55.60;;;;;;5052786;28;20815;-52
2022/12/28 03:43:39;;;;;;;6.07;5.97;;;22.00;55.60;;;;;;5052721;28;20467;-51
2022/12/28 03:46:14;;;;;;;6.43;6.30;;;22.00;55.60;;;;;;5052529;28;20467;-51
2022/12/28 03:48:42;;;;;;;6.27;6.07;;;22.00;55.50;;;;;;5051919;28;20451;-51
2022/12/28 03:51:12;;;;;;;7.20;7.00;;;22.00;55.50;;;;;;5052737;28;20448;-51
2022/12/28 03:53:41;;;;;;;6.60;6.40;;;22.00;55.50;;;;;;5052653;28;20464;-52
2022/12/28 03:56:10;;;;;;;6.00;5.90;;;22.00;55.60;;;;;;5052459;28;20455;-54
2022/12/28 03:58:37;;;;;;;5.70;5.60;;;22.00;55.50;;;;;;5052833;28;20808;-52
2022/12/28 04:01:05;;;;;;;5.90;5.80;;;22.00;55.50;;;;;;5052350;28;20450;-52
2022/12/28 04:03:32;;;;;;;5.90;5.80;;;22.00;55.60;;;;;;5052289;28;20550;-51
2022/12/28 04:05:59;;;;;;;5.90;5.80;;;22.00;55.70;;;;;;5052206;28;20448;-51
2022/12/28 04:08:28;;;;;;;6.30;6.10;;;22.00;55.70;;;;;;5052321;28;20960;-54
2022/12/28 04:10:55;;;;;;;5.90;5.80;;;22.00;55.70;;;;;;5052083;28;20952;-51
2022/12/28 04:13:22;;;;;;;6.13;5.93;;;22.00;55.70;;;;;;5052188;28;20563;-53
2022/12/28 04:15:56;;;;;;;6.03;5.93;;;22.00;55.80;;;;;;5051556;28;20448;-52
2022/12/28 04:18:23;;;;;;;6.10;6.00;;;22.10;55.90;;;;;;5052252;28;20809;-51
2022/12/28 04:20:50;;;;;;;6.17;6.07;;;22.00;55.70;;;;;;5051898;28;20451;-51
2022/12/28 04:23:17;;;;;;;6.47;6.27;;;22.00;55.80;;;;;;5052077;28;20467;-53
2022/12/28 04:25:55;;;;;;;6.20;6.00;;;22.10;55.80;;;;;;5051834;28;20470;-52
2022/12/28 04:28:22;;;;;;;6.33;6.23;;;22.10;56.40;;;;;;5052000;28;20490;-51
2022/12/28 04:30:49;;;;;;;6.10;5.90;;;22.10;55.80;;;;;;5051729;28;20989;-55
2022/12/28 04:33:15;;;;;;;4.80;4.70;;;22.10;55.70;;;;;;5061365;28;20526;-53
2022/12/28 04:35:42;;;;;;;6.70;6.50;;;22.10;55.80;;;;;;5055528;28;20574;-53
2022/12/28 04:38:09;;;;;;;7.20;6.90;;;22.10;55.80;;;;;;5051838;28;20447;-56
2022/12/28 04:40:36;;;;;;;6.40;6.30;;;22.10;55.80;;;;;;5051594;28;20531;-52
2022/12/28 04:43:04;;;;;;;6.67;6.57;;;22.10;55.80;;;;;;5050709;28;20555;-58
2022/12/28 04:45:31;;;;;;;6.90;6.70;;;22.10;55.80;;;;;;5051751;28;20472;-57
2022/12/28 04:47:58;;;;;;;7.10;6.87;;;22.10;55.80;;;;;;5051445;28;20491;-58
2022/12/28 04:50:25;;;;;;;6.20;6.10;;;22.00;55.80;;;;;;5051513;28;20444;-57
2022/12/28 04:52:52;;;;;;;6.97;6.77;;;22.10;55.90;;;;;;5051698;28;21000;-57
2022/12/28 04:55:19;;;;;;;6.20;6.10;;;22.00;55.80;;;;;;5051695;28;20522;-59
2022/12/28 04:57:46;;;;;;;6.70;6.60;;;22.00;56.00;;;;;;5051588;28;20444;-58
2022/12/28 05:00:15;;;;;;;6.30;6.20;;;22.00;56.00;;;;;;5049275;28;20547;-60
2022/12/28 05:02:42;;;;;;;6.63;6.43;;;22.00;56.00;;;;;;5031397;28;20473;-59
2022/12/28 05:05:09;;;;;;;6.50;6.30;;;22.00;56.00;;;;;;5037014;28;20453;-60
2022/12/28 05:07:37;;;;;;;6.70;6.50;;;22.00;56.10;;;;;;5051426;28;20850;-60
2022/12/28 05:10:04;;;;;;;7.13;6.90;;;22.00;56.10;;;;;;5051206;28;20448;-58
2022/12/28 05:12:31;;;;;;;6.47;6.37;;;22.00;56.10;;;;;;5051393;28;20474;-54
2022/12/28 05:14:58;;;;;;;6.70;6.60;;;22.00;56.00;;;;;;5051599;28;20544;-52
2022/12/28 05:17:26;;;;;;;6.90;6.70;;;22.00;56.10;;;;;;5046593;22;20518;-59
2022/12/28 05:19:53;;;;;;;7.17;7.07;;;22.10;56.10;;;;;;5031328;28;20556;-58
2022/12/28 05:22:20;;;;;;;6.60;6.40;;;22.10;56.10;;;;;;5031517;28;20549;-58
2022/12/28 05:24:47;;;;;;;6.60;6.50;;;22.00;56.00;;;;;;5031562;28;21125;-57
2022/12/28 05:27:13;;;;;;;6.50;6.37;;;22.00;56.00;;;;;;5031617;28;20512;-59
2022/12/28 05:29:40;;;;;;;6.70;6.60;;;22.00;56.10;;;;;;5032381;28;20468;-60
2022/12/28 05:32:07;;;;;;;7.10;6.93;;;22.00;56.10;;;;;;5033436;28;20532;-58
2022/12/28 05:34:35;;;;;;;7.23;7.13;;;22.00;56.10;;;;;;5033176;28;20441;-58
2022/12/28 05:37:02;;;;;;;7.00;6.90;;;22.10;56.10;;;;;;5032089;28;21001;-54
2022/12/28 05:39:29;;;;;;;7.40;7.20;;;22.00;54.80;;;;;;5031665;28;20544;-60
2022/12/28 05:41:58;;;;;;;7.13;7.00;;;21.90;54.80;;;;;;5032326;28;20445;-60
2022/12/28 05:44:25;;;;;;;6.70;6.60;;;21.90;54.90;;;;;;5031997;28;20453;-57
2022/12/28 05:46:53;;;;;;;7.17;7.00;;;22.00;55.00;;;;;;5031033;28;20488;-58
2022/12/28 05:49:19;;;;;;;6.93;6.83;;;21.90;55.10;;;;;;5031132;28;20453;-57
2022/12/28 05:51:50;;;;;;;7.10;7.00;;;22.00;55.20;;;;;;5031146;28;21009;-56
2022/12/28 05:54:17;;;;;;;7.23;7.03;;;22.00;55.20;;;;;;5031229;28;20455;-59
2022/12/28 05:56:44;;;;;;;7.30;7.20;;;22.00;55.20;;;;;;5031152;28;20472;-58
2022/12/28 05:59:12;;;;;;;7.47;7.33;;;22.00;55.20;;;;;;5031043;28;20639;-54
2022/12/28 06:01:41;;;;;;;7.50;7.40;;;22.00;55.30;;;;;;5031058;28;20453;-55
2022/12/28 06:04:11;;;;;;;7.93;7.40;;;22.00;55.20;;;;;;5031103;28;21002;-59
2022/12/28 06:06:43;;;;;;;7.47;7.37;;;22.00;55.20;;;;;;5031026;28;20475;-55
2022/12/28 06:09:12;;;;;;;7.50;7.30;;;22.00;55.20;;;;;;5030855;28;20512;-55
2022/12/28 06:11:38;;;;;;;7.30;7.10;;;22.00;55.40;;;;;;5032651;28;20457;-58
2022/12/28 06:14:06;;;;;;;8.33;8.13;;;22.00;55.40;;;;;;5034625;28;20455;-58
2022/12/28 06:16:35;;;;;;;7.97;7.77;;;22.00;55.20;;;;;;5034454;28;20569;-60
2022/12/28 06:19:05;;;;;;;7.90;7.70;;;22.00;55.40;;;;;;5034424;28;20922;-56
2022/12/28 06:21:34;;;;;;;8.50;8.30;;;22.00;55.30;;;;;;5034491;28;20456;-54
2022/12/28 06:24:02;;;;;;;8.63;8.43;;;22.00;55.30;;;;;;5034532;28;20952;-55
2022/12/28 06:26:32;;;;;;;7.80;7.60;;;22.10;55.40;;;;;;5034356;28;20465;-60
2022/12/28 06:29:00;;;;;;;7.90;7.80;;;22.00;55.40;;;;;;5034217;28;20572;-63
2022/12/28 06:31:29;;;;;;;8.83;8.63;;;22.20;55.60;;;;;;5034348;28;20456;-62
2022/12/28 06:33:58;;;;;;;8.10;7.90;;;22.20;55.50;;;;;;5034429;28;20448;-57
2022/12/28 06:36:28;;;;;;;7.57;7.37;;;22.20;55.30;;;;;;5034178;28;21008;-54
2022/12/28 06:38:56;;;;;;;8.07;7.90;;;22.30;55.20;;;;;;5033922;28;21011;-54
2022/12/28 06:41:24;;;;;;;7.37;7.27;;;22.40;55.10;;;;;;5034101;28;20964;-52
2022/12/28 06:43:53;;;;;;;7.73;7.63;;;22.50;55.00;;;;;;5034082;28;20445;-53
2022/12/28 06:46:21;;;;;;;7.70;7.50;;;22.50;54.80;;;;;;5033989;28;20465;-54
2022/12/28 06:48:49;;;;;;;8.10;7.70;;;22.60;54.70;;;;;;5033513;28;20525;-54
2022/12/28 06:51:18;;;;;;;7.50;7.30;;;22.60;54.60;;;;;;5029976;28;20453;-52
2022/12/28 06:53:46;;;;;;;7.80;7.70;;;22.70;54.50;;;;;;5033756;28;20552;-57
2022/12/28 06:56:15;;;;;;;7.70;7.50;;;22.70;54.40;;;;;;5033482;28;20466;-54
2022/12/28 06:58:42;;;;;;;7.97;7.77;;;22.80;54.30;;;;;;5033274;28;20437;-52
2022/12/28 07:01:13;;;;;;;7.47;7.37;;;22.80;54.20;;;;;;5018356;28;20454;-52
2022/12/28 07:03:40;;;;;;;7.50;7.40;;;22.90;54.10;;;;;;5033530;28;20949;-54
2022/12/28 07:06:08;;;;;;;7.47;7.37;;;22.90;53.90;;;;;;5033398;28;20531;-54
2022/12/28 07:08:35;;;;;;;7.80;7.60;;;22.90;53.90;;;;;;5032613;28;20484;-52
2022/12/28 07:11:03;;;;;;;7.53;7.40;;;22.90;53.90;;;;;;5023142;28;20468;-55
2022/12/28 07:13:30;;;;;;;7.60;7.40;;;22.90;54.00;;;;;;5013778;28;20965;-52
2022/12/28 07:15:57;;;;;;;8.13;7.93;;;22.80;54.00;;;;;;5030592;28;20441;-52
2022/12/28 07:18:25;;;;;;;7.73;7.53;;;22.80;54.10;;;;;;5033611;28;20929;-55
2022/12/28 07:20:57;;;;;;;7.70;7.60;;;22.80;54.30;;;;;;5033071;28;20528;-52
2022/12/28 07:23:28;;;;;;;7.50;7.30;;;22.70;54.30;;;;;;5033450;28;20866;-57
2022/12/28 07:25:55;;;;;;;7.93;7.73;;;22.80;54.90;;;;;;5033261;28;20455;-54
2022/12/28 07:28:22;;;;;;;7.77;7.67;;;22.70;54.50;;;;;;5033152;28;20841;-52
2022/12/28 07:30:49;;;;;;;8.17;7.97;;;22.70;54.50;;;;;;5032921;28;20539;-51
2022/12/28 07:33:16;;;;;;;7.60;7.50;;;22.60;54.60;;;;;;5033177;28;20540;-52
2022/12/28 07:35:44;;;;;;;7.90;7.80;;;22.60;54.60;;;;;;5033072;28;20966;-55
2022/12/28 07:38:11;;;;;;;7.30;7.20;;;22.60;54.70;;;;;;5032590;28;20548;-51
2022/12/28 07:40:37;;;;;;;7.90;7.70;;;22.60;54.70;;;;;;5032664;28;20819;-53
2022/12/28 07:43:04;;;;;;;7.30;7.20;;;22.60;54.70;;;;;;5032744;28;20532;-55
2022/12/28 07:45:31;;;;;;;8.03;7.83;;;22.60;54.80;;;;;;5032885;28;20818;-53
2022/12/28 07:47:58;;;;;;;7.70;7.50;;;22.60;54.80;;;;;;5032611;28;20543;-56
2022/12/28 07:50:25;;;;;;;7.60;7.50;;;22.50;54.90;;;;;;5032647;28;20452;-57
2022/12/28 07:52:53;;;;;;;7.53;7.43;;;22.60;55.00;;;;;;5032779;28;20536;-56
2022/12/28 07:55:20;;;;;;;7.93;7.73;;;22.60;54.90;;;;;;5032677;28;20455;-66
2022/12/28 07:57:47;;;;;;;7.83;7.50;;;22.70;55.10;;;;;;5032759;28;20473;-55
2022/12/28 08:00:14;;;;;;;7.70;7.50;;;22.80;55.40;;;;;;5032678;28;20441;-54
2022/12/28 08:02:41;;;;;;;8.40;8.20;;;22.80;54.80;;;;;;5032578;28;20449;-55
2022/12/28 08:05:14;;;;;;;8.20;8.00;;;22.90;54.50;;;;;;5032536;28;20608;-55
2022/12/28 08:07:41;;;;;;;8.20;8.00;;;22.90;54.40;;;;;;5032228;28;20483;-52
2022/12/28 08:10:10;;;;;;;7.50;7.40;;;22.90;54.20;;;;;;5032179;28;20566;-55
2022/12/28 08:12:36;;;;;;;7.60;7.50;;;23.00;54.10;;;;;;5032387;28;20823;-57
2022/12/28 08:15:04;;;;;;;8.30;8.00;;;23.00;53.90;;;;;;5032332;28;20532;-61
2022/12/28 08:17:31;;;;;;;7.97;7.87;;;23.10;53.90;;;;;;5032097;28;20481;-60
2022/12/28 08:19:57;;;;;;;7.80;7.60;;;23.10;53.70;;;;;;5032194;28;20449;-60
2022/12/28 08:22:24;;;;;;;8.10;7.90;;;23.20;53.70;;;;;;5032461;28;20449;-59
2022/12/28 08:24:51;;;;;;;8.07;7.87;;;23.20;53.70;;;;;;5032160;28;20449;-60
2022/12/28 08:27:19;;;;;;;8.07;7.87;;;23.20;53.70;;;;;;5032132;28;20579;-54
2022/12/28 08:29:46;;;;;;;7.60;7.50;;;23.30;53.70;;;;;;5032016;28;21125;-54
2022/12/28 08:32:13;;;;;;;8.00;7.80;;;23.30;53.50;;;;;;5032080;28;20533;-58
2022/12/28 08:34:40;;;;;;;8.27;8.07;;;23.30;53.50;;;;;;5031759;28;20540;-56
2022/12/28 08:37:07;;;;;;;8.10;7.90;;;23.20;53.50;;;;;;5032245;28;20554;-59
2022/12/28 08:39:33;;;;;;;7.60;7.50;;;23.20;53.50;;;;;;5032112;28;20441;-58
2022/12/28 08:42:00;;;;;;;8.20;8.00;;;23.10;53.50;;;;;;5031961;28;21018;-59
2022/12/28 08:44:28;;;;;;;8.37;8.17;;;23.10;53.60;;;;;;5032284;28;20532;-61
2022/12/28 08:46:56;;;;;;;7.80;7.67;;;23.10;53.80;;;;;;5031949;28;20998;-60
2022/12/28 08:49:23;;;;;;;8.13;7.83;;;23.00;53.80;;;;;;5031494;28;20562;-59
2022/12/28 08:51:50;;;;;;;8.30;8.20;;;23.00;53.90;;;;;;5031061;28;20442;-59
2022/12/28 08:54:17;;;;;;;8.23;8.03;;;23.00;54.00;;;;;;5031731;28;20445;-58
2022/12/28 08:56:45;;;;;;;7.93;7.77;;;23.00;54.00;;;;;;5031747;28;20622;-59
2022/12/28 08:59:15;;;;;;;8.37;8.17;;;22.90;54.00;;;;;;5031384;28;20441;-59
2022/12/28 09:01:43;;;;;;;8.20;8.00;;;22.90;54.10;;;;;;5031695;28;20459;-59
2022/12/28 09:04:13;;;;;;;8.07;7.90;;;22.90;54.20;;;;;;5031699;28;20457;-58
2022/12/28 09:06:40;;;;;;;8.00;7.80;;;22.90;54.20;;;;;;5031576;28;20986;-55
2022/12/28 09:09:10;;;;;;;8.70;8.50;;;22.80;54.20;;;;;;5031424;28;20473;-58
2022/12/28 09:11:39;;;;;;;8.60;8.40;;;22.80;54.20;;;;;;5031853;28;20437;-59
2022/12/28 09:14:07;;;;;;;8.90;8.70;;;22.90;54.40;;;;;;5031999;28;20453;-59
2022/12/28 09:16:35;;;;;;;8.50;8.30;;;22.90;54.40;;;;;;5031719;28;20560;-59
2022/12/28 09:19:05;;;;;;;8.60;8.40;;;22.90;54.30;;;;;;5031681;28;20449;-57
2022/12/28 09:21:34;;;;;;;8.40;8.20;;;23.00;54.70;;;;;;5031833;28;20520;-53
2022/12/28 09:24:01;;;;;;;8.33;8.13;;;23.00;54.10;;;;;;5031754;28;20457;-58
2022/12/28 09:26:29;;;;;;;8.63;8.43;;;23.10;54.00;;;;;;5031833;28;20842;-55
2022/12/28 09:28:58;;;;;;;8.37;8.27;;;23.10;53.90;;;;;;5031430;28;20515;-59
2022/12/28 09:31:27;;;;;;;8.20;8.00;;;23.20;54.40;;;;;;5031646;28;20441;-57
2022/12/28 09:34:00;;;;;;;8.20;8.10;;;23.20;53.70;;;;;;5031960;28;20449;-56
2022/12/28 09:36:30;;;;;;;8.07;7.87;;;23.30;53.70;;;;;;5031531;28;20480;-57
2022/12/28 09:38:58;;;;;;;8.13;8.03;;;23.30;53.60;;;;;;5031334;28;20442;-60
2022/12/28 09:41:28;;;;;;;9.03;8.83;;;23.30;53.60;;;;;;5031783;28;20485;-60
2022/12/28 09:44:04;;;;;;;8.07;7.87;;;23.40;53.80;;;;;;5031467;28;20448;-56
2022/12/28 09:46:33;;;;;;;9.10;8.90;;;23.40;53.60;;;;;;5032827;28;20470;-51
2022/12/28 09:49:02;;;;;;;8.97;8.77;;;23.40;53.40;;;;;;5035336;28;20487;-54
2022/12/28 09:51:34;;;;;;;8.43;8.23;;;23.40;53.30;;;;;;5035355;28;20976;-56
2022/12/28 09:54:03;;;;;;;8.00;7.80;;;23.50;53.30;;;;;;5034842;28;20502;-55
2022/12/28 09:56:35;;;;;;;8.03;7.87;;;23.50;53.20;;;;;;5034768;28;21013;-53
2022/12/28 09:59:05;;;;;;;9.60;9.40;;;23.50;53.10;;;;;;5034269;28;20437;-51
2022/12/28 10:01:35;;;;;;;9.73;9.53;;;23.50;53.20;;;;;;5034703;28;20205;-52
2022/12/28 10:04:02;;;;;;;9.60;9.40;;;23.60;53.20;;;;;;5034868;28;20455;-50
2022/12/28 10:06:34;;;;;;;9.40;9.10;;;23.60;53.10;;;;;;5034892;28;20830;-52
2022/12/28 10:09:03;;;;;;;9.60;9.40;;;23.60;53.00;;;;;;5034719;28;20480;-56
2022/12/28 10:11:34;;;;;;;9.70;9.50;;;23.60;53.40;;;;;;5034854;28;20536;-57
2022/12/28 10:14:03;;;;;;;10.40;10.10;;;23.60;53.10;;;;;;5034322;28;20536;-55
2022/12/28 10:16:32;;;;;;;9.90;9.70;;;23.60;53.00;;;;;;5034419;28;20481;-55
2022/12/28 10:18:59;;;;;;;9.90;9.70;;;23.60;52.90;;;;;;5034438;28;20451;-53
2022/12/28 10:21:30;;;;;;;9.90;9.70;;;23.60;52.90;;;;;;5034490;28;20445;-54
2022/12/28 10:23:58;;;;;;;10.20;10.00;;;23.60;52.80;;;;;;5034415;28;20449;-59
2022/12/28 10:26:25;;;;;;;10.13;9.83;;;23.60;52.70;;;;;;5034651;28;20475;-61
2022/12/28 10:28:53;;;;;;;10.00;9.80;;;23.60;53.00;;;;;;5034449;28;21020;-61
2022/12/28 10:31:32;;;;;;;10.17;9.93;;;23.60;52.50;;;;;;5034419;28;20445;-58
2022/12/28 10:33:59;;;;;;;10.57;10.37;;;23.60;52.50;;;;;;5034061;28;20810;-57
2022/12/28 10:36:32;;;;;;;9.53;9.33;;;23.70;52.60;;;;;;5034394;28;20469;-58
2022/12/28 10:39:04;;;;;;;9.97;9.70;;;23.60;52.50;;;;;;5034332;28;20805;-58
2022/12/28 10:41:37;;;;;;;9.60;9.40;;;23.70;52.60;;;;;;5034270;28;20471;-54
2022/12/28 10:44:19;;;;;;;10.10;9.90;;;23.70;52.70;;;;;;5033969;28;20454;-56
2022/12/28 10:46:59;;;;;;;9.80;9.60;;;23.70;52.70;;;;;;5034426;28;20807;-55
2022/12/28 10:49:28;;;;;;;9.67;9.47;;;23.70;52.70;;;;;;5033830;28;20530;-52
2022/12/28 10:52:01;;;;;;;10.50;10.20;;;23.70;52.70;;;;;;5034251;28;20536;-55
2022/12/28 10:54:32;;;;;;;10.20;9.90;;;23.60;53.00;;;;;;5033929;28;20865;-54
2022/12/28 10:56:59;;;;;;;10.10;9.90;;;23.70;54.10;;;;;;5033563;28;20872;-54
2022/12/28 10:59:27;;;;;;;9.93;9.70;;;23.70;53.40;;;;;;5033411;28;20526;-52
2022/12/28 11:01:56;;;;;;;9.50;9.30;;;23.70;53.40;;;;;;5033545;28;20457;-56
2022/12/28 11:04:25;;;;;;;9.90;9.70;;;23.70;53.10;;;;;;5034007;28;20453;-53
2022/12/28 11:06:54;;;;;;;10.60;10.30;;;23.70;53.00;;;;;;5033920;28;20469;-51
2022/12/28 11:09:23;;;;;;;9.70;9.50;;;23.70;52.80;;;;;;5033604;28;20487;-54
2022/12/28 11:11:54;;;;;;;9.87;9.67;;;23.70;52.80;;;;;;5033767;28;20528;-55
2022/12/28 11:14:30;;;;;;;10.03;9.83;;;23.70;52.80;;;;;;5033943;28;20467;-51
2022/12/28 11:16:57;;;;;;;10.03;9.83;;;23.70;52.80;;;;;;5068239;22;20949;-51
2022/12/28 11:19:25;;;;;;;10.10;9.80;;;23.70;52.80;;;;;;5013806;28;20434;-51
2022/12/28 11:21:53;;;;;;;10.20;10.00;;;23.70;52.70;;;;;;5013597;28;20456;-52
2022/12/28 11:24:25;;;;;;;10.13;9.93;;;23.80;52.80;;;;;;5013705;28;20453;-50
2022/12/28 11:26:59;;;;;;;10.07;9.77;;;23.70;52.80;;;;;;5013583;28;20477;-50
2022/12/28 11:29:27;;;;;;;10.07;9.80;;;23.80;52.80;;;;;;5012699;28;21013;-53
2022/12/28 11:32:01;;;;;;;10.40;10.10;;;23.80;52.80;;;;;;5013388;28;20517;-51
2022/12/28 11:34:31;;;;;;;10.37;10.17;;;23.80;52.80;;;;;;5013509;28;20463;-53
2022/12/28 11:36:58;;;;;;;9.50;9.30;;;23.80;52.70;;;;;;5012974;28;20469;-50
2022/12/28 11:39:43;;;;;;;9.63;9.43;;;23.70;52.70;;;;;;5013177;28;20448;-50
2022/12/28 11:42:24;;;;;;;9.90;9.70;;;23.70;52.80;;;;;;5013441;28;20454;-53
2022/12/28 11:44:53;;;;;;;9.87;9.67;;;23.60;52.80;;;;;;5013238;28;20450;-51
2022/12/28 11:47:29;;;;;;;9.60;9.40;;;23.60;53.00;;;;;;5012512;28;20476;-49
2022/12/28 11:50:35;;;;;;;9.30;9.10;;;23.50;53.10;;;;;;5012833;28;20481;-54
2022/12/28 11:53:04;;;;;;;9.30;9.10;;;23.50;53.30;;;;;;5013017;28;20513;-50
2022/12/28 11:55:43;;;;;;;9.40;9.20;;;23.40;53.40;;;;;;5013117;28;20496;-56
2022/12/28 11:58:49;;;;;;;9.50;9.30;;;23.30;53.40;;;;;;5012462;28;20524;-51
2022/12/28 12:01:48;;;;;;;9.70;9.40;;;23.30;53.60;;;;;;5012916;28;20456;-50
2022/12/28 12:04:42;;;;;;;9.40;9.20;;;23.30;53.80;;;;;;5004590;28;20446;-52
2022/12/28 12:07:42;;;;;;;9.20;9.00;;;23.30;53.90;;;;;;5012495;28;20557;-55
2022/12/28 12:10:33;;;;;;;9.33;9.13;;;23.20;53.90;;;;;;5009000;28;20914;-51
2022/12/28 12:13:02;;;;;;;9.50;9.30;;;23.20;54.00;;;;;;5012824;28;20453;-53
2022/12/28 12:15:41;;;;;;;9.40;9.20;;;23.20;54.10;;;;;;5012740;28;20460;-56
2022/12/28 12:18:19;;;;;;;9.43;9.23;;;23.10;54.10;;;;;;5012253;28;20470;-53
2022/12/28 12:20:55;;;;;;;9.10;8.90;;;23.10;54.50;;;;;;5012667;28;20982;-56
2022/12/28 12:23:39;;;;;;;8.90;8.70;;;23.20;54.50;;;;;;5012619;28;20456;-53
2022/12/28 12:26:19;;;;;;;10.70;10.20;;;23.20;54.30;;;;;;5012617;28;20446;-55
2022/12/28 12:28:49;;;;;;;8.60;8.40;;;23.30;54.30;;;;;;4998117;28;20528;-56
2022/12/28 12:31:23;;;;;;;8.80;8.60;;;23.30;54.20;;;;;;5012605;28;20807;-51
2022/12/28 12:33:54;;;;;;;9.07;8.87;;;23.30;54.00;;;;;;5012460;28;20800;-51
2022/12/28 12:36:41;;;;;;;8.90;8.70;;;23.40;54.00;;;;;;5012268;28;20446;-55
2022/12/28 12:39:29;;;;;;;9.30;8.97;;;23.40;53.80;;;;;;5012545;28;20545;-60
2022/12/28 12:42:04;;;;;;;9.03;8.83;;;23.50;54.10;;;;;;5012377;28;20453;-57
2022/12/28 12:44:40;;;;;;;9.43;9.23;;;23.50;53.90;;;;;;5012267;28;20442;-51
2022/12/28 12:47:38;;;;;;;9.10;8.90;;;23.50;53.80;;;;;;5011950;28;20469;-55
2022/12/28 12:50:26;;;;;;;9.23;9.03;;;23.60;53.80;;;;;;5012014;28;20521;-54
2022/12/28 12:53:14;;;;;;;9.53;9.33;;;23.60;53.70;;;;;;5012309;28;20805;-52
2022/12/28 12:55:55;;;;;;;8.70;8.50;;;23.60;53.70;;;;;;5012385;28;20450;-58
2022/12/28 12:58:27;;;;;;;9.07;8.87;;;23.70;53.70;;;;;;5012400;28;20476;-62
2022/12/28 13:01:11;;;;;;;9.20;9.00;;;23.70;54.10;;;;;;5011774;28;20452;-53
2022/12/28 13:03:43;;;;;;;9.97;9.67;;;23.70;54.00;;;;;;5009637;28;20444;-58
2022/12/28 13:06:16;;;;;;;9.13;8.93;;;23.70;55.10;;;;;;4992490;28;20985;-57
2022/12/28 13:08:47;;;;;;;9.30;9.10;;;23.70;54.30;;;;;;5001303;28;20442;-51
2022/12/28 13:11:16;;;;;;;9.60;9.40;;;23.70;54.00;;;;;;5011966;28;20444;-52
2022/12/28 13:13:45;;;;;;;9.40;9.20;;;23.70;53.80;;;;;;5011924;28;20444;-59
2022/12/28 13:16:16;;;;;;;9.90;9.40;;;23.70;53.70;;;;;;5011440;28;20450;-58
2022/12/28 13:18:53;;;;;;;9.50;8.90;;;23.70;53.70;;;;;;5011500;28;20454;-56
2022/12/28 13:21:23;;;;;;;8.90;8.70;;;23.70;53.70;;;;;;5014146;28;20452;-61
2022/12/28 13:23:51;;;;;;;9.03;8.83;;;23.70;54.00;;;;;;5016298;28;20445;-56
2022/12/28 13:26:21;;;;;;;9.20;9.00;;;23.70;54.00;;;;;;5016034;28;20457;-52
2022/12/28 13:28:53;;;;;;;8.80;8.60;;;23.70;53.80;;;;;;5015480;28;20453;-54